createdAt,value
2019-02-27T00:00:01.124Z,987.08
2019-02-27T00:05:01.082Z,987.07
2019-02-27T00:10:01.081Z,987.15
2019-02-27T00:15:02.144Z,987.19
2019-02-27T00:20:04.114Z,987.18
2019-02-27T00:25:03.438Z,987.16
2019-02-27T00:30:04.669Z,987.18
2019-02-27T00:35:01.078Z,987.09
2019-02-27T00:40:05.461Z,987.16
2019-02-27T00:45:01.073Z,987.19
2019-02-27T00:50:05.651Z,987.10
2019-02-27T00:55:04.325Z,987.21
2019-02-27T01:00:01.090Z,987.24
2019-02-27T01:05:01.099Z,987.34
2019-02-27T01:10:01.081Z,987.33
2019-02-27T01:15:01.084Z,987.47
2019-02-27T01:20:01.474Z,987.32
2019-02-27T01:25:01.084Z,987.27
2019-02-27T01:30:01.102Z,987.23
2019-02-27T01:35:01.087Z,987.27
2019-02-27T01:40:01.095Z,987.15
2019-02-27T01:45:01.082Z,987.19
2019-02-27T01:50:01.071Z,987.08
2019-02-27T01:55:01.071Z,987.05
2019-02-27T02:00:01.092Z,987.08
2019-02-27T02:05:02.199Z,987.12
2019-02-27T02:10:01.070Z,987.05
2019-02-27T02:15:01.437Z,987.13
2019-02-27T02:20:01.082Z,987.03
2019-02-27T02:25:01.095Z,986.96
2019-02-27T02:30:01.091Z,986.92
2019-02-27T02:35:01.100Z,986.97
2019-02-27T02:40:01.579Z,986.86
2019-02-27T02:45:01.087Z,986.85
2019-02-27T02:50:01.115Z,986.53
2019-02-27T02:55:01.103Z,986.58
2019-02-27T03:00:01.729Z,986.63
2019-02-27T03:05:01.111Z,986.50
2019-02-27T03:10:06.978Z,986.60
2019-02-27T03:15:01.082Z,986.62
2019-02-27T03:20:01.088Z,986.66
2019-02-27T03:25:04.395Z,986.62
2019-02-27T03:30:01.389Z,986.61
2019-02-27T03:35:01.110Z,986.65
2019-02-27T03:40:01.075Z,986.56
2019-02-27T03:45:01.498Z,986.65
2019-02-27T03:50:01.154Z,986.61
2019-02-27T03:55:01.082Z,986.61
2019-02-27T04:00:01.079Z,986.59
2019-02-27T04:05:05.418Z,986.70
2019-02-27T04:10:01.074Z,986.63
2019-02-27T04:15:01.401Z,986.61
2019-02-27T04:20:01.100Z,986.51
2019-02-27T04:25:01.099Z,986.66
2019-02-27T04:30:01.104Z,986.65
2019-02-27T04:35:01.113Z,986.71
2019-02-27T04:40:01.070Z,986.67
2019-02-27T04:45:01.088Z,986.68
2019-02-27T04:50:01.101Z,986.68
2019-02-27T04:55:01.591Z,986.76
2019-02-27T05:00:01.087Z,986.82
2019-02-27T05:05:01.082Z,986.87
2019-02-27T05:10:01.118Z,986.85
2019-02-27T05:15:03.965Z,986.90
2019-02-27T05:20:01.120Z,986.88
2019-02-27T05:25:01.044Z,986.90
2019-02-27T05:30:01.039Z,986.84
2019-02-27T05:35:01.045Z,987.00
2019-02-27T05:40:01.096Z,987.02
2019-02-27T05:45:01.075Z,987.03
2019-02-27T05:50:01.521Z,987.17
2019-02-27T05:55:01.134Z,987.22
2019-02-27T06:00:02.730Z,987.29
2019-02-27T06:05:01.110Z,987.34
2019-02-27T06:10:01.132Z,987.39
2019-02-27T06:15:01.077Z,987.42
2019-02-27T06:20:01.098Z,987.40
2019-02-27T06:25:01.108Z,987.46
2019-02-27T06:30:01.071Z,987.55
2019-02-27T06:35:01.080Z,987.63
2019-02-27T06:40:01.088Z,987.59
2019-02-27T06:45:01.076Z,987.61
2019-02-27T06:50:01.076Z,987.53
2019-02-27T06:55:01.081Z,987.67
2019-02-27T07:00:02.769Z,987.66
2019-02-27T07:05:01.084Z,987.65
2019-02-27T07:10:01.079Z,987.79
2019-02-27T07:15:01.238Z,987.71
2019-02-27T07:20:01.056Z,987.72
2019-02-27T07:25:01.072Z,987.69
2019-02-27T07:30:01.070Z,987.70
2019-02-27T07:35:01.270Z,987.71
2019-02-27T07:40:01.025Z,987.68
2019-02-27T07:45:01.086Z,987.60
2019-02-27T07:50:02.755Z,987.71
2019-02-27T07:55:01.303Z,987.57
2019-02-27T08:00:01.075Z,987.68
2019-02-27T08:05:01.096Z,987.66
2019-02-27T08:10:04.047Z,987.71
2019-02-27T08:15:01.105Z,987.72
2019-02-27T08:20:01.091Z,987.67
2019-02-27T08:25:01.077Z,987.77
2019-02-27T08:30:01.039Z,987.71
2019-02-27T08:35:01.058Z,987.74
2019-02-27T08:40:01.106Z,987.71
2019-02-27T08:45:01.083Z,987.77
2019-02-27T08:50:01.073Z,987.79
2019-02-27T08:55:05.439Z,987.82
2019-02-27T09:00:01.091Z,987.89
2019-02-27T09:05:01.075Z,987.81
2019-02-27T09:10:01.358Z,987.79
2019-02-27T09:15:01.060Z,987.83
2019-02-27T09:20:01.082Z,987.67
2019-02-27T09:25:01.099Z,987.66
2019-02-27T09:30:02.697Z,987.64
2019-02-27T09:35:01.366Z,987.72
2019-02-27T09:40:04.802Z,987.70
2019-02-27T09:45:01.038Z,987.68
2019-02-27T09:50:01.411Z,987.73
2019-02-27T09:55:01.087Z,987.68
2019-02-27T10:00:02.899Z,987.60
2019-02-27T10:05:03.030Z,987.58
2019-02-27T10:10:01.417Z,987.50
2019-02-27T10:15:01.102Z,987.41
2019-02-27T10:20:02.530Z,987.47
2019-02-27T10:25:01.091Z,987.41
2019-02-27T10:30:01.081Z,987.25
2019-02-27T10:35:01.090Z,987.19
2019-02-27T10:40:01.084Z,987.15
2019-02-27T10:45:01.060Z,987.09
2019-02-27T10:50:02.163Z,987.01
2019-02-27T10:55:01.068Z,986.83
2019-02-27T11:00:01.130Z,986.74
2019-02-27T11:05:01.094Z,986.80
2019-02-27T11:10:01.100Z,986.73
2019-02-27T11:15:01.095Z,986.62
2019-02-27T11:20:01.094Z,986.47
2019-02-27T11:25:01.083Z,986.39
2019-02-27T11:30:02.999Z,986.39
2019-02-27T11:35:01.091Z,986.35
2019-02-27T11:40:01.093Z,986.26
2019-02-27T11:45:01.551Z,986.13
2019-02-27T11:50:01.032Z,986.14
2019-02-27T11:55:01.050Z,986.08
2019-02-27T12:00:01.087Z,985.90
2019-02-27T12:05:01.095Z,985.83
2019-02-27T12:10:01.072Z,985.68
2019-02-27T12:15:01.077Z,985.72
2019-02-27T12:20:01.111Z,985.70
2019-02-27T12:25:01.111Z,985.63
2019-02-27T12:30:03.008Z,985.63
2019-02-27T12:35:03.035Z,985.58
2019-02-27T12:40:01.055Z,985.54
2019-02-27T12:45:01.427Z,985.51
2019-02-27T12:50:01.565Z,985.31
2019-02-27T12:55:01.879Z,985.33
2019-02-27T13:00:01.089Z,985.35
2019-02-27T13:05:02.321Z,985.14
2019-02-27T13:10:02.410Z,985.12
2019-02-27T13:15:01.124Z,985.18
2019-02-27T13:20:02.987Z,985.00
2019-02-27T13:25:01.640Z,985.10
2019-02-27T13:30:08.781Z,984.97
2019-02-27T13:35:01.061Z,984.98
2019-02-27T13:40:01.330Z,985.03
2019-02-27T13:45:01.099Z,984.94
2019-02-27T13:50:01.077Z,984.99
2019-02-27T13:55:01.105Z,984.92
2019-02-27T14:00:01.125Z,984.90
2019-02-27T14:05:01.109Z,984.86
2019-02-27T14:10:01.632Z,984.83
2019-02-27T14:15:01.092Z,984.79
2019-02-27T14:20:01.104Z,984.75
2019-02-27T14:25:01.105Z,984.79
2019-02-27T14:30:03.717Z,984.83
2019-02-27T14:35:01.695Z,984.66
2019-02-27T14:40:04.138Z,984.60
2019-02-27T14:45:03.264Z,984.59
2019-02-27T14:50:01.107Z,984.70
2019-02-27T14:55:03.515Z,984.63
2019-02-27T15:00:02.316Z,984.59
2019-02-27T15:05:06.106Z,984.47
2019-02-27T15:10:01.126Z,984.51
2019-02-27T15:15:01.101Z,984.52
2019-02-27T15:20:04.836Z,984.53
2019-02-27T15:25:01.110Z,984.50
2019-02-27T15:30:01.058Z,984.41
2019-02-27T15:35:01.095Z,984.41
2019-02-27T15:40:01.076Z,984.46
2019-02-27T15:45:01.069Z,984.42
2019-02-27T15:50:02.665Z,984.45
2019-02-27T15:55:01.088Z,984.37
2019-02-27T16:00:01.061Z,984.40
2019-02-27T16:05:01.413Z,984.35
2019-02-27T16:10:06.783Z,984.39
2019-02-27T16:15:01.088Z,984.38
2019-02-27T16:20:01.098Z,984.43
2019-02-27T16:25:01.090Z,984.42
2019-02-27T16:30:01.060Z,984.41
2019-02-27T16:35:01.083Z,984.47
2019-02-27T16:40:01.099Z,984.44
2019-02-27T16:45:01.109Z,984.50
2019-02-27T16:50:01.459Z,984.54
2019-02-27T16:55:02.366Z,984.59
2019-02-27T17:00:01.851Z,984.62
2019-02-27T17:05:01.094Z,984.62
2019-02-27T17:10:01.105Z,984.60
2019-02-27T17:15:01.097Z,984.46
2019-02-27T17:20:01.677Z,984.55
2019-02-27T17:25:02.056Z,984.46
2019-02-27T17:30:01.187Z,984.51
2019-02-27T17:35:01.697Z,984.46
2019-02-27T17:40:02.229Z,984.44
2019-02-27T17:45:01.042Z,984.46
2019-02-27T17:50:01.065Z,984.51
2019-02-27T17:55:03.561Z,984.61
2019-02-27T18:00:01.065Z,984.53
2019-02-27T18:05:02.289Z,984.44
2019-02-27T18:10:02.250Z,984.48
2019-02-27T18:15:01.088Z,984.44
2019-02-27T18:20:01.103Z,984.44
2019-02-27T18:25:01.079Z,984.38
2019-02-27T18:30:01.072Z,984.47
2019-02-27T18:35:01.058Z,984.43
2019-02-27T18:40:01.060Z,984.38
2019-02-27T18:45:01.243Z,984.41
2019-02-27T18:50:01.188Z,984.28
2019-02-27T18:55:01.310Z,984.23
2019-02-27T19:00:02.363Z,984.21
2019-02-27T19:05:01.062Z,984.20
2019-02-27T19:10:03.848Z,984.18
2019-02-27T19:15:01.224Z,984.21
2019-02-27T19:20:01.109Z,984.18
2019-02-27T19:25:01.066Z,984.16
2019-02-27T19:30:06.374Z,984.18
2019-02-27T19:35:01.087Z,984.20
2019-02-27T19:40:01.281Z,984.17
2019-02-27T19:50:02.074Z,984.27
2019-02-27T19:55:01.057Z,984.30
2019-02-27T20:00:01.070Z,984.20
2019-02-27T20:05:01.065Z,984.11
2019-02-27T20:10:01.067Z,983.93
2019-02-27T20:15:01.073Z,983.85
2019-02-27T20:20:04.095Z,983.85
2019-02-27T20:25:01.063Z,983.93
2019-02-27T20:30:01.474Z,983.80
2019-02-27T20:35:01.134Z,983.77
2019-02-27T20:40:01.141Z,983.68
2019-02-27T20:45:01.112Z,983.66
2019-02-27T20:50:01.070Z,983.57
2019-02-27T20:55:01.065Z,983.64
2019-02-27T21:00:02.720Z,983.72
2019-02-27T21:05:01.100Z,983.55
2019-02-27T21:10:01.567Z,983.45
2019-02-27T21:15:01.096Z,983.38
2019-02-27T21:20:01.099Z,983.30
2019-02-27T21:25:01.101Z,983.20
2019-02-27T21:30:01.063Z,983.20
2019-02-27T21:35:01.067Z,982.98
2019-02-27T21:40:03.105Z,982.99
2019-02-27T21:45:03.652Z,982.95
2019-02-27T21:50:03.678Z,982.84
2019-02-27T21:55:01.116Z,982.75
2019-02-27T22:00:01.104Z,982.83
2019-02-27T22:05:01.593Z,982.68
2019-02-27T22:10:01.109Z,982.65
2019-02-27T22:15:01.102Z,982.66
2019-02-27T22:20:01.118Z,982.54
2019-02-27T22:25:01.100Z,982.58
2019-02-27T22:30:01.152Z,982.64
2019-02-27T22:35:02.591Z,982.58
2019-02-27T22:40:06.542Z,982.41
2019-02-27T22:45:03.952Z,982.30
2019-02-27T22:50:06.048Z,982.27
2019-02-27T22:55:01.092Z,982.28
2019-02-27T23:00:01.114Z,982.22
2019-02-27T23:05:01.370Z,982.08
2019-02-27T23:10:01.062Z,982.04
2019-02-27T23:15:01.118Z,982.04
2019-02-27T23:20:01.106Z,981.97
2019-02-27T23:25:01.111Z,981.94
2019-02-27T23:30:01.500Z,981.90
2019-02-27T23:35:01.094Z,981.91
2019-02-27T23:40:01.478Z,981.82
2019-02-27T23:45:01.104Z,981.74
2019-02-27T23:50:01.112Z,981.69
2019-02-27T23:55:01.114Z,981.74
